sensor_id;sensor_type;location;lat;lon;timestamp;P1;durP1;ratioP1;P2;durP2;ratioP2
80384;SDS011;69702;44.618;33.604;2023-12-20T00:01:55;9.90;;;5.77;;
80384;SDS011;69702;44.618;33.604;2023-12-20T00:04:21;8.95;;;5.78;;
80384;SDS011;69702;44.618;33.604;2023-12-20T00:06:47;9.63;;;5.88;;
80384;SDS011;69702;44.618;33.604;2023-12-20T00:09:13;10.77;;;5.68;;
80384;SDS011;69702;44.618;33.604;2023-12-20T00:11:39;12.52;;;6.00;;
80384;SDS011;69702;44.618;33.604;2023-12-20T00:14:07;8.60;;;5.60;;
80384;SDS011;69702;44.618;33.604;2023-12-20T00:16:33;9.45;;;5.18;;
80384;SDS011;69702;44.618;33.604;2023-12-20T00:19:00;9.75;;;5.78;;
80384;SDS011;69702;44.618;33.604;2023-12-20T00:21:27;9.77;;;5.82;;
80384;SDS011;69702;44.618;33.604;2023-12-20T00:23:53;8.77;;;5.07;;
80384;SDS011;69702;44.618;33.604;2023-12-20T00:26:19;9.60;;;5.83;;
80384;SDS011;69702;44.618;33.604;2023-12-20T00:28:45;11.20;;;5.43;;
80384;SDS011;69702;44.618;33.604;2023-12-20T00:31:11;11.50;;;6.07;;
80384;SDS011;69702;44.618;33.604;2023-12-20T00:33:37;11.10;;;5.90;;
80384;SDS011;69702;44.618;33.604;2023-12-20T00:36:05;10.60;;;5.87;;
80384;SDS011;69702;44.618;33.604;2023-12-20T00:38:31;10.77;;;6.32;;
80384;SDS011;69702;44.618;33.604;2023-12-20T00:40:57;12.63;;;6.35;;
80384;SDS011;69702;44.618;33.604;2023-12-20T00:43:24;10.18;;;5.68;;
80384;SDS011;69702;44.618;33.604;2023-12-20T00:45:50;10.88;;;5.95;;
80384;SDS011;69702;44.618;33.604;2023-12-20T00:48:16;10.83;;;5.43;;
80384;SDS011;69702;44.618;33.604;2023-12-20T00:50:42;11.68;;;6.00;;
80384;SDS011;69702;44.618;33.604;2023-12-20T00:53:08;9.93;;;5.60;;
80384;SDS011;69702;44.618;33.604;2023-12-20T00:55:34;10.60;;;6.30;;
80384;SDS011;69702;44.618;33.604;2023-12-20T00:58:00;10.60;;;6.15;;
80384;SDS011;69702;44.618;33.604;2023-12-20T01:00:26;10.77;;;6.20;;
80384;SDS011;69702;44.618;33.604;2023-12-20T01:02:52;12.10;;;5.78;;
80384;SDS011;69702;44.618;33.604;2023-12-20T01:05:18;10.80;;;6.70;;
80384;SDS011;69702;44.618;33.604;2023-12-20T01:07:45;9.90;;;5.57;;
80384;SDS011;69702;44.618;33.604;2023-12-20T01:10:11;14.25;;;5.90;;
80384;SDS011;69702;44.618;33.604;2023-12-20T01:12:37;10.97;;;6.00;;
80384;SDS011;69702;44.618;33.604;2023-12-20T01:15:03;10.07;;;5.80;;
80384;SDS011;69702;44.618;33.604;2023-12-20T01:17:30;9.90;;;5.88;;
80384;SDS011;69702;44.618;33.604;2023-12-20T01:19:56;9.25;;;5.75;;
80384;SDS011;69702;44.618;33.604;2023-12-20T01:22:23;11.82;;;6.10;;
80384;SDS011;69702;44.618;33.604;2023-12-20T01:24:49;10.77;;;6.00;;
80384;SDS011;69702;44.618;33.604;2023-12-20T01:27:15;9.25;;;5.78;;
80384;SDS011;69702;44.618;33.604;2023-12-20T01:29:42;11.25;;;6.28;;
80384;SDS011;69702;44.618;33.604;2023-12-20T01:32:08;10.85;;;5.75;;
80384;SDS011;69702;44.618;33.604;2023-12-20T01:34:34;11.93;;;6.15;;
80384;SDS011;69702;44.618;33.604;2023-12-20T01:37:00;10.90;;;6.37;;
80384;SDS011;69702;44.618;33.604;2023-12-20T01:39:26;9.85;;;6.13;;
80384;SDS011;69702;44.618;33.604;2023-12-20T01:41:52;11.10;;;6.18;;
80384;SDS011;69702;44.618;33.604;2023-12-20T01:44:18;11.10;;;6.15;;
80384;SDS011;69702;44.618;33.604;2023-12-20T01:46:45;10.10;;;6.00;;
80384;SDS011;69702;44.618;33.604;2023-12-20T01:49:11;10.43;;;5.77;;
80384;SDS011;69702;44.618;33.604;2023-12-20T01:51:37;11.10;;;5.90;;
80384;SDS011;69702;44.618;33.604;2023-12-20T01:54:04;10.65;;;6.20;;
80384;SDS011;69702;44.618;33.604;2023-12-20T01:56:30;10.52;;;6.20;;
80384;SDS011;69702;44.618;33.604;2023-12-20T01:58:57;10.25;;;6.20;;
80384;SDS011;69702;44.618;33.604;2023-12-20T02:01:24;10.73;;;6.23;;
80384;SDS011;69702;44.618;33.604;2023-12-20T02:03:50;9.75;;;6.00;;
80384;SDS011;69702;44.618;33.604;2023-12-20T02:06:17;10.77;;;5.82;;
80384;SDS011;69702;44.618;33.604;2023-12-20T02:08:44;12.07;;;6.57;;
80384;SDS011;69702;44.618;33.604;2023-12-20T02:11:10;11.48;;;5.68;;
80384;SDS011;69702;44.618;33.604;2023-12-20T02:13:36;10.63;;;6.23;;
80384;SDS011;69702;44.618;33.604;2023-12-20T02:16:02;11.43;;;6.50;;
80384;SDS011;69702;44.618;33.604;2023-12-20T02:18:29;12.13;;;6.68;;
80384;SDS011;69702;44.618;33.604;2023-12-20T02:20:55;12.48;;;6.82;;
80384;SDS011;69702;44.618;33.604;2023-12-20T02:23:22;11.15;;;6.82;;
80384;SDS011;69702;44.618;33.604;2023-12-20T02:25:48;11.00;;;6.80;;
80384;SDS011;69702;44.618;33.604;2023-12-20T02:28:14;15.00;;;7.63;;
80384;SDS011;69702;44.618;33.604;2023-12-20T02:30:40;11.13;;;6.40;;
80384;SDS011;69702;44.618;33.604;2023-12-20T02:33:08;12.52;;;6.15;;
80384;SDS011;69702;44.618;33.604;2023-12-20T02:35:37;11.52;;;7.03;;
80384;SDS011;69702;44.618;33.604;2023-12-20T02:38:03;10.97;;;6.07;;
80384;SDS011;69702;44.618;33.604;2023-12-20T02:40:29;12.05;;;6.97;;
80384;SDS011;69702;44.618;33.604;2023-12-20T02:42:55;10.35;;;6.18;;
80384;SDS011;69702;44.618;33.604;2023-12-20T02:45:21;10.23;;;6.35;;
80384;SDS011;69702;44.618;33.604;2023-12-20T02:47:47;10.23;;;6.85;;
80384;SDS011;69702;44.618;33.604;2023-12-20T02:50:13;10.20;;;5.70;;
80384;SDS011;69702;44.618;33.604;2023-12-20T02:52:40;10.23;;;5.50;;
80384;SDS011;69702;44.618;33.604;2023-12-20T02:55:06;12.18;;;6.38;;
80384;SDS011;69702;44.618;33.604;2023-12-20T02:57:32;12.57;;;6.30;;
80384;SDS011;69702;44.618;33.604;2023-12-20T02:59:59;11.57;;;6.32;;
80384;SDS011;69702;44.618;33.604;2023-12-20T03:02:25;9.47;;;5.80;;
80384;SDS011;69702;44.618;33.604;2023-12-20T03:04:51;9.40;;;5.47;;
80384;SDS011;69702;44.618;33.604;2023-12-20T03:07:17;11.55;;;6.22;;
80384;SDS011;69702;44.618;33.604;2023-12-20T03:09:43;10.40;;;5.60;;
80384;SDS011;69702;44.618;33.604;2023-12-20T03:12:09;10.20;;;6.22;;
80384;SDS011;69702;44.618;33.604;2023-12-20T03:14:35;9.67;;;5.50;;
80384;SDS011;69702;44.618;33.604;2023-12-20T03:17:01;9.27;;;5.47;;
80384;SDS011;69702;44.618;33.604;2023-12-20T03:19:27;9.90;;;5.95;;
80384;SDS011;69702;44.618;33.604;2023-12-20T03:21:54;9.00;;;5.22;;
80384;SDS011;69702;44.618;33.604;2023-12-20T03:24:20;9.37;;;5.23;;
80384;SDS011;69702;44.618;33.604;2023-12-20T03:26:46;11.10;;;6.13;;
80384;SDS011;69702;44.618;33.604;2023-12-20T03:29:12;11.07;;;5.50;;
80384;SDS011;69702;44.618;33.604;2023-12-20T03:31:38;10.20;;;5.82;;
80384;SDS011;69702;44.618;33.604;2023-12-20T03:34:04;11.32;;;5.60;;
80384;SDS011;69702;44.618;33.604;2023-12-20T03:36:31;9.50;;;5.33;;
80384;SDS011;69702;44.618;33.604;2023-12-20T03:38:57;10.02;;;5.68;;
80384;SDS011;69702;44.618;33.604;2023-12-20T03:41:23;10.40;;;5.97;;
80384;SDS011;69702;44.618;33.604;2023-12-20T03:43:49;10.68;;;5.93;;
80384;SDS011;69702;44.618;33.604;2023-12-20T03:46:15;10.97;;;6.03;;
80384;SDS011;69702;44.618;33.604;2023-12-20T03:48:42;10.00;;;6.43;;
80384;SDS011;69702;44.618;33.604;2023-12-20T03:51:08;9.50;;;6.25;;
80384;SDS011;69702;44.618;33.604;2023-12-20T03:53:34;9.55;;;5.60;;
80384;SDS011;69702;44.618;33.604;2023-12-20T03:56:00;15.15;;;7.15;;
80384;SDS011;69702;44.618;33.604;2023-12-20T03:58:26;8.43;;;5.07;;
80384;SDS011;69702;44.618;33.604;2023-12-20T04:00:52;10.85;;;5.28;;
80384;SDS011;69702;44.618;33.604;2023-12-20T04:03:18;11.60;;;6.65;;
80384;SDS011;69702;44.618;33.604;2023-12-20T04:05:44;12.05;;;5.80;;
80384;SDS011;69702;44.618;33.604;2023-12-20T04:08:11;13.90;;;6.28;;
80384;SDS011;69702;44.618;33.604;2023-12-20T04:10:37;9.90;;;4.93;;
80384;SDS011;69702;44.618;33.604;2023-12-20T04:13:03;7.28;;;4.43;;
80384;SDS011;69702;44.618;33.604;2023-12-20T04:15:30;9.55;;;4.97;;
80384;SDS011;69702;44.618;33.604;2023-12-20T04:17:56;13.50;;;5.05;;
80384;SDS011;69702;44.618;33.604;2023-12-20T04:20:22;8.85;;;5.28;;
80384;SDS011;69702;44.618;33.604;2023-12-20T04:22:48;9.30;;;4.77;;
80384;SDS011;69702;44.618;33.604;2023-12-20T04:25:14;8.40;;;4.75;;
80384;SDS011;69702;44.618;33.604;2023-12-20T04:27:40;9.15;;;4.68;;
80384;SDS011;69702;44.618;33.604;2023-12-20T04:30:06;9.65;;;5.70;;
80384;SDS011;69702;44.618;33.604;2023-12-20T04:32:33;7.80;;;4.23;;
80384;SDS011;69702;44.618;33.604;2023-12-20T04:34:59;9.77;;;5.00;;
80384;SDS011;69702;44.618;33.604;2023-12-20T04:37:25;8.85;;;5.50;;
80384;SDS011;69702;44.618;33.604;2023-12-20T04:39:51;8.85;;;4.78;;
80384;SDS011;69702;44.618;33.604;2023-12-20T04:42:17;9.50;;;5.03;;
80384;SDS011;69702;44.618;33.604;2023-12-20T04:44:43;9.40;;;4.53;;
80384;SDS011;69702;44.618;33.604;2023-12-20T04:47:10;8.93;;;5.20;;
80384;SDS011;69702;44.618;33.604;2023-12-20T04:49:36;9.25;;;5.10;;
80384;SDS011;69702;44.618;33.604;2023-12-20T04:52:02;8.95;;;5.00;;
80384;SDS011;69702;44.618;33.604;2023-12-20T04:54:28;8.02;;;4.70;;
80384;SDS011;69702;44.618;33.604;2023-12-20T04:56:54;9.13;;;4.50;;
80384;SDS011;69702;44.618;33.604;2023-12-20T04:59:20;7.20;;;4.55;;
80384;SDS011;69702;44.618;33.604;2023-12-20T05:01:47;8.15;;;4.20;;
80384;SDS011;69702;44.618;33.604;2023-12-20T05:04:13;10.57;;;5.10;;
80384;SDS011;69702;44.618;33.604;2023-12-20T05:06:39;8.73;;;4.90;;
80384;SDS011;69702;44.618;33.604;2023-12-20T05:09:05;11.80;;;4.53;;
80384;SDS011;69702;44.618;33.604;2023-12-20T05:11:31;7.70;;;4.00;;
80384;SDS011;69702;44.618;33.604;2023-12-20T05:13:58;8.52;;;4.60;;
80384;SDS011;69702;44.618;33.604;2023-12-20T05:16:24;9.98;;;5.03;;
80384;SDS011;69702;44.618;33.604;2023-12-20T05:18:50;7.72;;;4.95;;
80384;SDS011;69702;44.618;33.604;2023-12-20T05:21:18;9.20;;;4.77;;
80384;SDS011;69702;44.618;33.604;2023-12-20T05:23:44;8.23;;;4.80;;
80384;SDS011;69702;44.618;33.604;2023-12-20T05:26:11;9.20;;;5.07;;
80384;SDS011;69702;44.618;33.604;2023-12-20T05:28:37;8.80;;;4.80;;
80384;SDS011;69702;44.618;33.604;2023-12-20T05:31:03;8.57;;;4.85;;
80384;SDS011;69702;44.618;33.604;2023-12-20T05:33:30;9.43;;;5.10;;
80384;SDS011;69702;44.618;33.604;2023-12-20T05:35:56;9.43;;;5.22;;
80384;SDS011;69702;44.618;33.604;2023-12-20T05:38:22;9.13;;;5.10;;
80384;SDS011;69702;44.618;33.604;2023-12-20T05:40:48;8.65;;;4.85;;
80384;SDS011;69702;44.618;33.604;2023-12-20T05:43:14;9.80;;;5.07;;
80384;SDS011;69702;44.618;33.604;2023-12-20T05:45:40;10.27;;;5.20;;
80384;SDS011;69702;44.618;33.604;2023-12-20T05:48:06;10.63;;;4.85;;
80384;SDS011;69702;44.618;33.604;2023-12-20T05:50:32;8.43;;;4.80;;
80384;SDS011;69702;44.618;33.604;2023-12-20T05:53:00;12.55;;;6.00;;
80384;SDS011;69702;44.618;33.604;2023-12-20T05:55:26;10.05;;;5.25;;
80384;SDS011;69702;44.618;33.604;2023-12-20T05:57:52;9.20;;;5.80;;
80384;SDS011;69702;44.618;33.604;2023-12-20T06:00:18;11.93;;;6.25;;
80384;SDS011;69702;44.618;33.604;2023-12-20T06:02:44;14.10;;;5.63;;
80384;SDS011;69702;44.618;33.604;2023-12-20T06:05:11;18.35;;;6.35;;
80384;SDS011;69702;44.618;33.604;2023-12-20T06:07:37;13.05;;;5.30;;
80384;SDS011;69702;44.618;33.604;2023-12-20T06:10:03;11.37;;;5.40;;
80384;SDS011;69702;44.618;33.604;2023-12-20T06:12:29;23.90;;;6.80;;
80384;SDS011;69702;44.618;33.604;2023-12-20T06:14:57;9.90;;;5.53;;
80384;SDS011;69702;44.618;33.604;2023-12-20T06:17:24;9.98;;;5.50;;
80384;SDS011;69702;44.618;33.604;2023-12-20T06:19:50;10.23;;;5.78;;
80384;SDS011;69702;44.618;33.604;2023-12-20T06:22:16;10.50;;;6.33;;
80384;SDS011;69702;44.618;33.604;2023-12-20T06:24:42;8.88;;;6.35;;
80384;SDS011;69702;44.618;33.604;2023-12-20T06:27:08;9.18;;;5.45;;
80384;SDS011;69702;44.618;33.604;2023-12-20T06:29:34;8.25;;;5.10;;
80384;SDS011;69702;44.618;33.604;2023-12-20T06:32:01;8.93;;;5.28;;
80384;SDS011;69702;44.618;33.604;2023-12-20T06:34:27;12.03;;;5.90;;
80384;SDS011;69702;44.618;33.604;2023-12-20T06:36:53;9.15;;;4.85;;
80384;SDS011;69702;44.618;33.604;2023-12-20T06:39:20;10.90;;;4.60;;
80384;SDS011;69702;44.618;33.604;2023-12-20T06:41:46;10.68;;;5.60;;
80384;SDS011;69702;44.618;33.604;2023-12-20T06:44:12;8.93;;;4.43;;
80384;SDS011;69702;44.618;33.604;2023-12-20T06:46:38;7.78;;;5.05;;
80384;SDS011;69702;44.618;33.604;2023-12-20T06:49:04;9.30;;;6.25;;
80384;SDS011;69702;44.618;33.604;2023-12-20T06:51:30;7.57;;;4.95;;
80384;SDS011;69702;44.618;33.604;2023-12-20T06:53:56;7.80;;;5.15;;
80384;SDS011;69702;44.618;33.604;2023-12-20T06:56:22;6.90;;;4.63;;
80384;SDS011;69702;44.618;33.604;2023-12-20T06:58:48;7.55;;;5.45;;
80384;SDS011;69702;44.618;33.604;2023-12-20T07:01:15;8.98;;;5.10;;
80384;SDS011;69702;44.618;33.604;2023-12-20T07:03:42;16.52;;;5.30;;
80384;SDS011;69702;44.618;33.604;2023-12-20T07:06:09;7.97;;;5.10;;
80384;SDS011;69702;44.618;33.604;2023-12-20T07:08:35;6.72;;;5.25;;
80384;SDS011;69702;44.618;33.604;2023-12-20T07:11:01;8.15;;;5.85;;
80384;SDS011;69702;44.618;33.604;2023-12-20T07:13:27;6.72;;;5.20;;
80384;SDS011;69702;44.618;33.604;2023-12-20T07:15:54;10.50;;;6.55;;
80384;SDS011;69702;44.618;33.604;2023-12-20T07:18:20;8.35;;;4.20;;
80384;SDS011;69702;44.618;33.604;2023-12-20T07:20:46;6.80;;;4.85;;
80384;SDS011;69702;44.618;33.604;2023-12-20T07:23:12;6.07;;;4.63;;
80384;SDS011;69702;44.618;33.604;2023-12-20T07:25:38;6.88;;;5.00;;
80384;SDS011;69702;44.618;33.604;2023-12-20T07:28:05;7.78;;;5.30;;
80384;SDS011;69702;44.618;33.604;2023-12-20T07:30:31;7.40;;;5.18;;
80384;SDS011;69702;44.618;33.604;2023-12-20T07:32:57;7.28;;;4.63;;
80384;SDS011;69702;44.618;33.604;2023-12-20T07:35:23;8.27;;;5.30;;
80384;SDS011;69702;44.618;33.604;2023-12-20T07:37:50;6.28;;;5.15;;
80384;SDS011;69702;44.618;33.604;2023-12-20T07:40:17;6.45;;;4.40;;
80384;SDS011;69702;44.618;33.604;2023-12-20T07:42:44;5.85;;;4.28;;
80384;SDS011;69702;44.618;33.604;2023-12-20T07:45:10;8.15;;;5.43;;
80384;SDS011;69702;44.618;33.604;2023-12-20T07:47:38;7.68;;;5.85;;
80384;SDS011;69702;44.618;33.604;2023-12-20T07:50:04;8.48;;;5.65;;
80384;SDS011;69702;44.618;33.604;2023-12-20T07:52:30;8.32;;;5.25;;
80384;SDS011;69702;44.618;33.604;2023-12-20T07:54:57;6.65;;;5.20;;
80384;SDS011;69702;44.618;33.604;2023-12-20T07:57:23;8.40;;;5.80;;
80384;SDS011;69702;44.618;33.604;2023-12-20T07:59:49;7.05;;;5.35;;
80384;SDS011;69702;44.618;33.604;2023-12-20T08:02:16;6.03;;;4.90;;
80384;SDS011;69702;44.618;33.604;2023-12-20T08:04:42;6.97;;;4.78;;
80384;SDS011;69702;44.618;33.604;2023-12-20T08:07:08;7.63;;;4.30;;
80384;SDS011;69702;44.618;33.604;2023-12-20T08:09:35;7.75;;;4.93;;
80384;SDS011;69702;44.618;33.604;2023-12-20T08:12:02;7.03;;;4.27;;
80384;SDS011;69702;44.618;33.604;2023-12-20T08:14:29;7.82;;;5.20;;
80384;SDS011;69702;44.618;33.604;2023-12-20T08:16:55;6.75;;;5.10;;
80384;SDS011;69702;44.618;33.604;2023-12-20T08:19:21;7.65;;;4.72;;
80384;SDS011;69702;44.618;33.604;2023-12-20T08:21:47;7.57;;;4.65;;
80384;SDS011;69702;44.618;33.604;2023-12-20T08:24:14;6.10;;;4.13;;
80384;SDS011;69702;44.618;33.604;2023-12-20T08:26:40;7.63;;;3.75;;
80384;SDS011;69702;44.618;33.604;2023-12-20T08:29:06;8.70;;;4.30;;
80384;SDS011;69702;44.618;33.604;2023-12-20T08:31:32;5.90;;;4.07;;
80384;SDS011;69702;44.618;33.604;2023-12-20T08:33:58;6.25;;;3.97;;
80384;SDS011;69702;44.618;33.604;2023-12-20T08:36:24;6.40;;;4.70;;
80384;SDS011;69702;44.618;33.604;2023-12-20T08:38:51;6.93;;;4.40;;
80384;SDS011;69702;44.618;33.604;2023-12-20T08:41:17;7.03;;;5.50;;
80384;SDS011;69702;44.618;33.604;2023-12-20T08:43:43;6.05;;;4.45;;
80384;SDS011;69702;44.618;33.604;2023-12-20T08:46:09;7.30;;;5.20;;
80384;SDS011;69702;44.618;33.604;2023-12-20T08:48:35;7.43;;;4.03;;
80384;SDS011;69702;44.618;33.604;2023-12-20T08:51:03;6.22;;;4.03;;
80384;SDS011;69702;44.618;33.604;2023-12-20T08:53:29;6.38;;;4.50;;
80384;SDS011;69702;44.618;33.604;2023-12-20T08:55:56;6.10;;;4.50;;
80384;SDS011;69702;44.618;33.604;2023-12-20T08:58:27;6.93;;;4.75;;
80384;SDS011;69702;44.618;33.604;2023-12-20T09:00:53;6.87;;;5.17;;
80384;SDS011;69702;44.618;33.604;2023-12-20T09:03:20;8.63;;;4.75;;
80384;SDS011;69702;44.618;33.604;2023-12-20T09:05:46;7.45;;;5.30;;
80384;SDS011;69702;44.618;33.604;2023-12-20T09:08:12;7.63;;;5.20;;
80384;SDS011;69702;44.618;33.604;2023-12-20T09:10:38;6.75;;;5.20;;
80384;SDS011;69702;44.618;33.604;2023-12-20T09:13:04;6.70;;;4.90;;
80384;SDS011;69702;44.618;33.604;2023-12-20T09:15:30;7.97;;;5.18;;
80384;SDS011;69702;44.618;33.604;2023-12-20T09:17:56;6.70;;;5.00;;
80384;SDS011;69702;44.618;33.604;2023-12-20T09:20:22;8.60;;;5.30;;
80384;SDS011;69702;44.618;33.604;2023-12-20T09:22:49;7.43;;;5.55;;
80384;SDS011;69702;44.618;33.604;2023-12-20T09:25:15;8.10;;;5.37;;
80384;SDS011;69702;44.618;33.604;2023-12-20T09:27:44;7.68;;;5.00;;
80384;SDS011;69702;44.618;33.604;2023-12-20T09:30:11;6.72;;;5.35;;
80384;SDS011;69702;44.618;33.604;2023-12-20T09:32:37;7.10;;;5.30;;
80384;SDS011;69702;44.618;33.604;2023-12-20T09:35:04;7.35;;;5.03;;
80384;SDS011;69702;44.618;33.604;2023-12-20T09:37:32;6.37;;;5.00;;
80384;SDS011;69702;44.618;33.604;2023-12-20T09:39:58;6.93;;;4.88;;
80384;SDS011;69702;44.618;33.604;2023-12-20T09:42:29;7.13;;;4.60;;
80384;SDS011;69702;44.618;33.604;2023-12-20T09:45:01;7.15;;;4.35;;
80384;SDS011;69702;44.618;33.604;2023-12-20T09:47:31;5.80;;;4.88;;
80384;SDS011;69702;44.618;33.604;2023-12-20T09:49:57;8.20;;;4.60;;
80384;SDS011;69702;44.618;33.604;2023-12-20T09:52:23;8.15;;;4.80;;
80384;SDS011;69702;44.618;33.604;2023-12-20T09:54:50;6.55;;;5.25;;
80384;SDS011;69702;44.618;33.604;2023-12-20T09:57:18;7.55;;;4.93;;
80384;SDS011;69702;44.618;33.604;2023-12-20T09:59:44;6.32;;;5.13;;
80384;SDS011;69702;44.618;33.604;2023-12-20T10:02:12;6.20;;;4.63;;
80384;SDS011;69702;44.618;33.604;2023-12-20T10:04:46;6.47;;;4.78;;
80384;SDS011;69702;44.618;33.604;2023-12-20T10:07:16;6.20;;;4.90;;
80384;SDS011;69702;44.618;33.604;2023-12-20T10:09:42;8.93;;;5.05;;
80384;SDS011;69702;44.618;33.604;2023-12-20T10:12:09;6.53;;;5.22;;
80384;SDS011;69702;44.618;33.604;2023-12-20T10:14:35;5.70;;;4.80;;
80384;SDS011;69702;44.618;33.604;2023-12-20T10:17:02;11.95;;;5.43;;
80384;SDS011;69702;44.618;33.604;2023-12-20T10:19:29;9.60;;;5.78;;
80384;SDS011;69702;44.618;33.604;2023-12-20T10:21:56;7.13;;;4.97;;
80384;SDS011;69702;44.618;33.604;2023-12-20T10:24:22;6.45;;;4.72;;
80384;SDS011;69702;44.618;33.604;2023-12-20T10:26:48;11.67;;;5.53;;
80384;SDS011;69702;44.618;33.604;2023-12-20T10:29:38;7.20;;;5.32;;
80384;SDS011;69702;44.618;33.604;2023-12-20T10:32:23;8.75;;;5.45;;
80384;SDS011;69702;44.618;33.604;2023-12-20T10:34:53;9.82;;;5.18;;
80384;SDS011;69702;44.618;33.604;2023-12-20T10:37:20;11.13;;;5.55;;
80384;SDS011;69702;44.618;33.604;2023-12-20T10:39:50;8.37;;;5.60;;
80384;SDS011;69702;44.618;33.604;2023-12-20T10:42:20;11.98;;;5.18;;
80384;SDS011;69702;44.618;33.604;2023-12-20T10:44:48;6.63;;;5.15;;
80384;SDS011;69702;44.618;33.604;2023-12-20T10:47:15;6.18;;;4.80;;
80384;SDS011;69702;44.618;33.604;2023-12-20T10:49:41;6.65;;;4.55;;
80384;SDS011;69702;44.618;33.604;2023-12-20T10:52:07;7.20;;;4.70;;
80384;SDS011;69702;44.618;33.604;2023-12-20T10:54:34;6.32;;;5.45;;
80384;SDS011;69702;44.618;33.604;2023-12-20T10:57:00;6.43;;;5.07;;
80384;SDS011;69702;44.618;33.604;2023-12-20T10:59:31;8.38;;;5.03;;
80384;SDS011;69702;44.618;33.604;2023-12-20T11:01:59;6.65;;;5.18;;
80384;SDS011;69702;44.618;33.604;2023-12-20T11:04:27;7.00;;;5.10;;
80384;SDS011;69702;44.618;33.604;2023-12-20T11:07:07;6.28;;;5.07;;
80384;SDS011;69702;44.618;33.604;2023-12-20T11:09:42;7.95;;;5.45;;
80384;SDS011;69702;44.618;33.604;2023-12-20T11:12:18;6.80;;;5.72;;
80384;SDS011;69702;44.618;33.604;2023-12-20T11:14:50;8.82;;;6.30;;
80384;SDS011;69702;44.618;33.604;2023-12-20T11:17:19;8.73;;;6.30;;
80384;SDS011;69702;44.618;33.604;2023-12-20T11:22:19;8.43;;;6.50;;
80384;SDS011;69702;44.618;33.604;2023-12-20T11:24:48;8.88;;;6.10;;
80384;SDS011;69702;44.618;33.604;2023-12-20T11:27:16;10.02;;;6.40;;
80384;SDS011;69702;44.618;33.604;2023-12-20T11:29:42;11.77;;;7.07;;
80384;SDS011;69702;44.618;33.604;2023-12-20T11:34:54;8.45;;;6.18;;
80384;SDS011;69702;44.618;33.604;2023-12-20T11:37:46;8.93;;;6.18;;
80384;SDS011;69702;44.618;33.604;2023-12-20T11:40:16;8.48;;;6.40;;
80384;SDS011;69702;44.618;33.604;2023-12-20T11:42:45;8.57;;;6.07;;
80384;SDS011;69702;44.618;33.604;2023-12-20T11:45:15;7.35;;;5.75;;
80384;SDS011;69702;44.618;33.604;2023-12-20T11:47:43;7.50;;;5.55;;
80384;SDS011;69702;44.618;33.604;2023-12-20T11:50:12;7.55;;;6.18;;
80384;SDS011;69702;44.618;33.604;2023-12-20T11:52:38;7.28;;;5.85;;
80384;SDS011;69702;44.618;33.604;2023-12-20T11:55:04;9.20;;;5.80;;
80384;SDS011;69702;44.618;33.604;2023-12-20T11:57:31;8.57;;;5.47;;
80384;SDS011;69702;44.618;33.604;2023-12-20T11:59:58;8.60;;;6.18;;
80384;SDS011;69702;44.618;33.604;2023-12-20T12:02:24;7.70;;;5.90;;
80384;SDS011;69702;44.618;33.604;2023-12-20T12:04:50;7.80;;;5.57;;
80384;SDS011;69702;44.618;33.604;2023-12-20T12:07:17;8.03;;;5.43;;
80384;SDS011;69702;44.618;33.604;2023-12-20T12:09:43;7.47;;;6.05;;
80384;SDS011;69702;44.618;33.604;2023-12-20T12:12:11;8.00;;;5.82;;
80384;SDS011;69702;44.618;33.604;2023-12-20T12:14:38;8.40;;;5.63;;
80384;SDS011;69702;44.618;33.604;2023-12-20T12:17:12;7.20;;;6.00;;
80384;SDS011;69702;44.618;33.604;2023-12-20T12:19:39;7.90;;;5.20;;
80384;SDS011;69702;44.618;33.604;2023-12-20T12:22:10;7.68;;;5.53;;
80384;SDS011;69702;44.618;33.604;2023-12-20T12:24:41;7.03;;;5.50;;
80384;SDS011;69702;44.618;33.604;2023-12-20T12:27:11;7.40;;;5.55;;
80384;SDS011;69702;44.618;33.604;2023-12-20T12:29:38;9.20;;;5.50;;
80384;SDS011;69702;44.618;33.604;2023-12-20T12:32:05;6.77;;;4.70;;
80384;SDS011;69702;44.618;33.604;2023-12-20T12:34:32;9.20;;;5.22;;
80384;SDS011;69702;44.618;33.604;2023-12-20T12:37:03;6.80;;;4.53;;
80384;SDS011;69702;44.618;33.604;2023-12-20T12:39:30;7.63;;;5.22;;
80384;SDS011;69702;44.618;33.604;2023-12-20T12:41:56;7.00;;;4.68;;
80384;SDS011;69702;44.618;33.604;2023-12-20T12:44:23;7.40;;;4.73;;
80384;SDS011;69702;44.618;33.604;2023-12-20T12:46:52;6.15;;;4.20;;
80384;SDS011;69702;44.618;33.604;2023-12-20T12:49:20;6.43;;;4.68;;
80384;SDS011;69702;44.618;33.604;2023-12-20T12:51:47;6.18;;;4.50;;
80384;SDS011;69702;44.618;33.604;2023-12-20T12:54:13;7.30;;;4.85;;
80384;SDS011;69702;44.618;33.604;2023-12-20T12:56:42;6.37;;;4.30;;
80384;SDS011;69702;44.618;33.604;2023-12-20T12:59:08;7.22;;;3.72;;
80384;SDS011;69702;44.618;33.604;2023-12-20T13:01:34;6.88;;;3.45;;
80384;SDS011;69702;44.618;33.604;2023-12-20T13:04:03;5.95;;;3.70;;
80384;SDS011;69702;44.618;33.604;2023-12-20T13:06:32;6.07;;;3.70;;
80384;SDS011;69702;44.618;33.604;2023-12-20T13:08:58;7.03;;;3.60;;
80384;SDS011;69702;44.618;33.604;2023-12-20T13:11:24;8.07;;;4.30;;
80384;SDS011;69702;44.618;33.604;2023-12-20T13:13:51;6.68;;;4.65;;
80384;SDS011;69702;44.618;33.604;2023-12-20T13:16:18;6.82;;;4.15;;
80384;SDS011;69702;44.618;33.604;2023-12-20T13:18:44;8.63;;;4.60;;
80384;SDS011;69702;44.618;33.604;2023-12-20T13:21:10;8.40;;;4.80;;
80384;SDS011;69702;44.618;33.604;2023-12-20T13:23:36;6.55;;;4.22;;
80384;SDS011;69702;44.618;33.604;2023-12-20T13:26:02;6.38;;;4.40;;
80384;SDS011;69702;44.618;33.604;2023-12-20T13:28:29;7.55;;;5.05;;
80384;SDS011;69702;44.618;33.604;2023-12-20T13:30:55;7.68;;;4.28;;
80384;SDS011;69702;44.618;33.604;2023-12-20T13:33:21;7.73;;;4.30;;
80384;SDS011;69702;44.618;33.604;2023-12-20T13:35:47;6.88;;;4.45;;
80384;SDS011;69702;44.618;33.604;2023-12-20T13:38:13;7.20;;;4.40;;
80384;SDS011;69702;44.618;33.604;2023-12-20T13:40:40;6.88;;;4.15;;
80384;SDS011;69702;44.618;33.604;2023-12-20T13:43:06;6.57;;;3.85;;
80384;SDS011;69702;44.618;33.604;2023-12-20T13:45:32;7.63;;;4.23;;
80384;SDS011;69702;44.618;33.604;2023-12-20T13:47:58;9.00;;;3.78;;
80384;SDS011;69702;44.618;33.604;2023-12-20T13:50:24;6.03;;;3.70;;
80384;SDS011;69702;44.618;33.604;2023-12-20T13:52:51;8.27;;;4.00;;
80384;SDS011;69702;44.618;33.604;2023-12-20T13:55:17;8.00;;;3.47;;
80384;SDS011;69702;44.618;33.604;2023-12-20T13:57:47;6.80;;;3.67;;
80384;SDS011;69702;44.618;33.604;2023-12-20T14:00:14;8.15;;;4.07;;
80384;SDS011;69702;44.618;33.604;2023-12-20T14:02:41;7.45;;;3.90;;
80384;SDS011;69702;44.618;33.604;2023-12-20T14:05:07;8.45;;;4.22;;
80384;SDS011;69702;44.618;33.604;2023-12-20T14:07:34;10.75;;;4.78;;
80384;SDS011;69702;44.618;33.604;2023-12-20T14:10:00;8.33;;;4.10;;
80384;SDS011;69702;44.618;33.604;2023-12-20T14:12:29;7.07;;;3.70;;
80384;SDS011;69702;44.618;33.604;2023-12-20T14:14:55;8.65;;;4.18;;
80384;SDS011;69702;44.618;33.604;2023-12-20T14:17:22;8.38;;;4.40;;
80384;SDS011;69702;44.618;33.604;2023-12-20T14:19:48;11.57;;;4.88;;
80384;SDS011;69702;44.618;33.604;2023-12-20T14:22:14;6.43;;;3.67;;
80384;SDS011;69702;44.618;33.604;2023-12-20T14:24:42;6.97;;;3.80;;
80384;SDS011;69702;44.618;33.604;2023-12-20T14:27:09;10.90;;;4.28;;
80384;SDS011;69702;44.618;33.604;2023-12-20T14:29:36;11.85;;;5.03;;
80384;SDS011;69702;44.618;33.604;2023-12-20T14:32:03;11.48;;;5.05;;
80384;SDS011;69702;44.618;33.604;2023-12-20T14:34:30;10.90;;;4.80;;